CEB753 RPLL-VVTS
Flight info
| Callsign | CEB753 |
|---|---|
| Flight time | N/A |
| Altitude | 36000 |
| Route | BETEL2R BETEL M765 PANDI/K0850F360 N500 PTH DALAP2G |
| Aircraft | A339/H-SADE1E2E3GHIJ3J5M1P2RWXY/LB2D1 |
Departure
| Time | 2026-05-06 03:48 |
|---|---|
| Airport | Ninoy Aquino International Airport (RPLL) |
Arrival
| Time | N/A |
|---|---|
| Airport | Tan Son Nhat International Airport (VVTS) |
| Time | Latitude | Longitude | Altitude | Speed | Heading |
|---|---|---|---|---|---|
| 2026-05-06 03:17 | 14.51701 | 121.01465 | 90 ft | 0 kts | 46° |
| 2026-05-06 03:29 | 14.51697 | 121.01459 | 90 ft | 2 kts | 52° |
| 2026-05-06 03:29 | 14.51688 | 121.01447 | 90 ft | 2 kts | 49° |
| 2026-05-06 03:29 | 14.51677 | 121.01437 | 90 ft | 2 kts | 45° |
| 2026-05-06 03:30 | 14.51666 | 121.01425 | 90 ft | 2 kts | 46° |
| 2026-05-06 03:30 | 14.51656 | 121.01414 | 90 ft | 2 kts | 64° |
| 2026-05-06 03:30 | 14.51654 | 121.01406 | 90 ft | 2 kts | 81° |
| 2026-05-06 03:30 | 14.51653 | 121.01394 | 90 ft | 2 kts | 102° |
| 2026-05-06 03:31 | 14.51659 | 121.01379 | 90 ft | 2 kts | 128° |
| 2026-05-06 03:31 | 14.51663 | 121.01375 | 90 ft | 1 kts | 136° |
| 2026-05-06 03:31 | 14.51665 | 121.01372 | 90 ft | 0 kts | 135° |
| 2026-05-06 03:32 | 14.51665 | 121.01373 | 90 ft | 0 kts | 135° |
| 2026-05-06 03:35 | 14.51662 | 121.01376 | 90 ft | 1 kts | 135° |
| 2026-05-06 03:35 | 14.51650 | 121.01388 | 90 ft | 3 kts | 135° |
| 2026-05-06 03:35 | 14.51631 | 121.01407 | 90 ft | 5 kts | 135° |
| 2026-05-06 03:35 | 14.51599 | 121.01441 | 90 ft | 7 kts | 134° |
| 2026-05-06 03:36 | 14.51557 | 121.01485 | 90 ft | 9 kts | 135° |
| 2026-05-06 03:36 | 14.51508 | 121.01535 | 90 ft | 10 kts | 135° |
| 2026-05-06 03:36 | 14.51454 | 121.01591 | 90 ft | 11 kts | 135° |
| 2026-05-06 03:36 | 14.51395 | 121.01652 | 90 ft | 12 kts | 134° |
| 2026-05-06 03:37 | 14.51332 | 121.01719 | 90 ft | 13 kts | 134° |
| 2026-05-06 03:37 | 14.51264 | 121.01789 | 90 ft | 14 kts | 134° |
| 2026-05-06 03:37 | 14.51194 | 121.01862 | 90 ft | 14 kts | 135° |
| 2026-05-06 03:37 | 14.51121 | 121.01937 | 90 ft | 15 kts | 134° |
| 2026-05-06 03:38 | 14.51071 | 121.01981 | 90 ft | 4 kts | 167° |
| 2026-05-06 03:38 | 14.51037 | 121.01966 | 90 ft | 6 kts | 217° |
| 2026-05-06 03:38 | 14.51005 | 121.01925 | 90 ft | 8 kts | 238° |
| 2026-05-06 03:38 | 14.50973 | 121.01869 | 90 ft | 10 kts | 240° |
| 2026-05-06 03:39 | 14.50933 | 121.01796 | 90 ft | 13 kts | 240° |
| 2026-05-06 03:39 | 14.50884 | 121.01709 | 90 ft | 14 kts | 240° |
| 2026-05-06 03:39 | 14.50832 | 121.01615 | 90 ft | 15 kts | 240° |
| 2026-05-06 03:39 | 14.50779 | 121.01517 | 90 ft | 15 kts | 240° |
| 2026-05-06 03:40 | 14.50723 | 121.01417 | 90 ft | 16 kts | 240° |
| 2026-05-06 03:40 | 14.50666 | 121.01314 | 90 ft | 16 kts | 240° |
| 2026-05-06 03:40 | 14.50614 | 121.01221 | 90 ft | 10 kts | 240° |
| 2026-05-06 03:40 | 14.50576 | 121.01151 | 90 ft | 11 kts | 240° |
| 2026-05-06 03:41 | 14.50533 | 121.01074 | 90 ft | 12 kts | 240° |
| 2026-05-06 03:41 | 14.50487 | 121.00992 | 90 ft | 13 kts | 240° |
| 2026-05-06 03:41 | 14.50437 | 121.00905 | 90 ft | 14 kts | 239° |
| 2026-05-06 03:41 | 14.50386 | 121.00813 | 90 ft | 15 kts | 240° |
| 2026-05-06 03:42 | 14.50334 | 121.00717 | 90 ft | 15 kts | 240° |
| 2026-05-06 03:42 | 14.50279 | 121.00618 | 90 ft | 16 kts | 240° |
| 2026-05-06 03:42 | 14.50222 | 121.00517 | 90 ft | 16 kts | 240° |
| 2026-05-06 03:42 | 14.50164 | 121.00412 | 90 ft | 16 kts | 241° |
| 2026-05-06 03:43 | 14.50106 | 121.00305 | 90 ft | 17 kts | 240° |
| 2026-05-06 03:43 | 14.50046 | 121.00199 | 90 ft | 17 kts | 240° |
| 2026-05-06 03:43 | 14.49986 | 121.00088 | 90 ft | 17 kts | 241° |
| 2026-05-06 03:43 | 14.49938 | 121.00003 | 90 ft | 8 kts | 240° |
| 2026-05-06 03:44 | 14.49916 | 120.99971 | 90 ft | 5 kts | 218° |
| 2026-05-06 03:44 | 14.49890 | 120.99965 | 90 ft | 3 kts | 163° |
| 2026-05-06 03:44 | 14.49886 | 120.99966 | 90 ft | 0 kts | 160° |
| 2026-05-06 03:45 | 14.49872 | 120.99972 | 90 ft | 3 kts | 158° |
| 2026-05-06 03:45 | 14.49839 | 120.99989 | 90 ft | 6 kts | 152° |
| 2026-05-06 03:46 | 14.49807 | 121.00023 | 90 ft | 7 kts | 105° |
| 2026-05-06 03:46 | 14.49812 | 121.00061 | 90 ft | 9 kts | 70° |
| 2026-05-06 03:46 | 14.49822 | 121.00082 | 90 ft | 10 kts | 61° |
| 2026-05-06 03:46 | 14.49834 | 121.00104 | 90 ft | 10 kts | 60° |
| 2026-05-06 03:47 | 14.49889 | 121.00204 | 90 ft | 38 kts | 60° |
| 2026-05-06 03:47 | 14.50136 | 121.00647 | 90 ft | 100 kts | 61° |
| 2026-05-06 03:47 | 14.50568 | 121.01433 | 90 ft | 151 kts | 59° |
| 2026-05-06 03:48 | 14.51145 | 121.02452 | 313 ft | 173 kts | 62° |
| 2026-05-06 03:48 | 14.51764 | 121.03518 | 842 ft | 175 kts | 61° |
| 2026-05-06 03:48 | 14.52377 | 121.04588 | 1466 ft | 173 kts | 61° |
| 2026-05-06 03:48 | 14.52953 | 121.05638 | 2065 ft | 167 kts | 63° |
| 2026-05-06 03:49 | 14.53531 | 121.06717 | 2313 ft | 178 kts | 63° |
| 2026-05-06 03:49 | 14.54161 | 121.07885 | 2558 ft | 192 kts | 62° |
| 2026-05-06 03:49 | 14.54839 | 121.09123 | 2803 ft | 205 kts | 62° |
| 2026-05-06 03:49 | 14.55569 | 121.10445 | 3052 ft | 220 kts | 62° |
| 2026-05-06 03:50 | 14.56362 | 121.11863 | 3324 ft | 236 kts | 57° |
| 2026-05-06 03:50 | 14.57608 | 121.13063 | 3642 ft | 254 kts | 28° |
| 2026-05-06 03:50 | 14.59347 | 121.13496 | 4223 ft | 261 kts | 3° |
| 2026-05-06 03:50 | 14.61145 | 121.13493 | 4871 ft | 263 kts | 2° |
| 2026-05-06 03:51 | 14.62981 | 121.13487 | 5526 ft | 265 kts | 2° |
| 2026-05-06 03:51 | 14.64844 | 121.13490 | 6190 ft | 267 kts | 2° |
| 2026-05-06 03:51 | 14.66714 | 121.13461 | 6700 ft | 271 kts | 355° |
| 2026-05-06 03:51 | 14.68494 | 121.12775 | 6960 ft | 277 kts | 325° |
| 2026-05-06 03:52 | 14.69760 | 121.11288 | 7000 ft | 280 kts | 296° |
| 2026-05-06 03:52 | 14.70216 | 121.09354 | 6991 ft | 281 kts | 271° |
| 2026-05-06 03:52 | 14.70073 | 121.07330 | 6994 ft | 288 kts | 253° |
| 2026-05-06 03:52 | 14.69225 | 121.05460 | 7027 ft | 293 kts | 238° |
| 2026-05-06 03:53 | 14.68082 | 121.03655 | 7455 ft | 300 kts | 235° |
| 2026-05-06 03:53 | 14.66930 | 121.01874 | 8224 ft | 298 kts | 236° |
| 2026-05-06 03:53 | 14.65817 | 121.00101 | 8913 ft | 299 kts | 237° |
| 2026-05-06 03:53 | 14.64706 | 120.98280 | 9587 ft | 301 kts | 238° |
| 2026-05-06 03:54 | 14.63598 | 120.96426 | 10220 ft | 304 kts | 238° |
| 2026-05-06 03:54 | 14.62478 | 120.94532 | 10571 ft | 317 kts | 238° |
| 2026-05-06 03:54 | 14.61311 | 120.92542 | 10856 ft | 332 kts | 238° |
| 2026-05-06 03:54 | 14.60112 | 120.90488 | 11318 ft | 340 kts | 238° |
| 2026-05-06 03:55 | 14.58874 | 120.88365 | 11924 ft | 343 kts | 239° |
| 2026-05-06 03:55 | 14.57649 | 120.86262 | 12520 ft | 345 kts | 239° |
| 2026-05-06 03:55 | 14.56408 | 120.84132 | 13116 ft | 349 kts | 239° |
| 2026-05-06 03:55 | 14.55151 | 120.81973 | 13698 ft | 352 kts | 239° |
| 2026-05-06 03:56 | 14.53901 | 120.79824 | 14273 ft | 354 kts | 239° |
| 2026-05-06 03:56 | 14.52619 | 120.77621 | 14858 ft | 357 kts | 239° |
| 2026-05-06 03:56 | 14.51341 | 120.75427 | 15408 ft | 360 kts | 238° |
| 2026-05-06 03:56 | 14.50046 | 120.73206 | 15984 ft | 363 kts | 238° |
| 2026-05-06 03:57 | 14.48747 | 120.70977 | 16524 ft | 365 kts | 238° |
| 2026-05-06 03:57 | 14.47435 | 120.68726 | 17085 ft | 367 kts | 238° |
| 2026-05-06 03:57 | 14.46103 | 120.66442 | 17638 ft | 370 kts | 238° |
| 2026-05-06 03:57 | 14.44787 | 120.64190 | 18185 ft | 372 kts | 238° |
| 2026-05-06 03:58 | 14.43451 | 120.61901 | 18725 ft | 375 kts | 238° |
| 2026-05-06 03:58 | 14.42100 | 120.59588 | 19255 ft | 378 kts | 239° |
| 2026-05-06 03:58 | 14.40748 | 120.57272 | 19808 ft | 380 kts | 239° |
| 2026-05-06 03:58 | 14.39372 | 120.54916 | 20316 ft | 382 kts | 239° |
| 2026-05-06 03:59 | 14.37998 | 120.52566 | 20814 ft | 385 kts | 239° |
| 2026-05-06 03:59 | 14.36617 | 120.50203 | 21305 ft | 387 kts | 239° |
| 2026-05-06 03:59 | 14.35229 | 120.47829 | 21787 ft | 389 kts | 239° |
| 2026-05-06 03:59 | 14.33816 | 120.45413 | 22264 ft | 391 kts | 239° |
| 2026-05-06 04:00 | 14.32426 | 120.43035 | 22722 ft | 394 kts | 239° |
| 2026-05-06 04:00 | 14.31001 | 120.40597 | 23171 ft | 396 kts | 239° |
| 2026-05-06 04:00 | 14.29584 | 120.38178 | 23604 ft | 399 kts | 239° |
| 2026-05-06 04:00 | 14.28137 | 120.35703 | 24042 ft | 402 kts | 239° |
| 2026-05-06 04:01 | 14.26702 | 120.33254 | 24476 ft | 404 kts | 239° |
| 2026-05-06 04:01 | 14.25246 | 120.30766 | 24910 ft | 406 kts | 239° |
| 2026-05-06 04:01 | 14.23775 | 120.28255 | 25338 ft | 408 kts | 239° |
| 2026-05-06 04:01 | 14.22299 | 120.25736 | 25757 ft | 411 kts | 239° |
| 2026-05-06 04:02 | 14.20825 | 120.23222 | 26168 ft | 413 kts | 239° |
| 2026-05-06 04:02 | 14.19354 | 120.20699 | 26571 ft | 415 kts | 240° |
| 2026-05-06 04:02 | 14.17963 | 120.18080 | 26965 ft | 417 kts | 243° |
| 2026-05-06 04:02 | 14.16714 | 120.15376 | 27359 ft | 419 kts | 247° |
| 2026-05-06 04:03 | 14.15589 | 120.12598 | 27744 ft | 421 kts | 248° |
| 2026-05-06 04:03 | 14.14485 | 120.09804 | 28125 ft | 423 kts | 249° |
| 2026-05-06 04:03 | 14.13381 | 120.07001 | 28490 ft | 425 kts | 249° |
| 2026-05-06 04:03 | 14.12274 | 120.04195 | 28856 ft | 428 kts | 249° |
| 2026-05-06 04:04 | 14.11143 | 120.01327 | 29229 ft | 430 kts | 249° |
| 2026-05-06 04:04 | 14.10015 | 119.98475 | 29604 ft | 432 kts | 249° |
| 2026-05-06 04:04 | 14.08890 | 119.95631 | 29975 ft | 433 kts | 249° |
| 2026-05-06 04:04 | 14.07745 | 119.92740 | 30344 ft | 435 kts | 249° |
| 2026-05-06 04:05 | 14.06599 | 119.89849 | 30696 ft | 437 kts | 249° |
| 2026-05-06 04:05 | 14.05451 | 119.86955 | 31052 ft | 439 kts | 249° |
| 2026-05-06 04:05 | 14.04298 | 119.84049 | 31398 ft | 441 kts | 249° |
| 2026-05-06 04:05 | 14.03144 | 119.81142 | 31728 ft | 443 kts | 249° |
| 2026-05-06 04:06 | 14.01968 | 119.78183 | 32073 ft | 444 kts | 249° |
| 2026-05-06 04:06 | 14.00814 | 119.75279 | 32399 ft | 446 kts | 249° |
| 2026-05-06 04:06 | 13.99637 | 119.72320 | 32729 ft | 448 kts | 249° |
| 2026-05-06 04:06 | 13.98471 | 119.69385 | 33071 ft | 449 kts | 249° |
| 2026-05-06 04:07 | 13.97272 | 119.66371 | 33406 ft | 451 kts | 249° |
| 2026-05-06 04:07 | 13.96080 | 119.63376 | 33713 ft | 453 kts | 249° |
| 2026-05-06 04:07 | 13.94879 | 119.60359 | 34073 ft | 454 kts | 249° |
| 2026-05-06 04:07 | 13.93687 | 119.57367 | 34475 ft | 454 kts | 249° |
| 2026-05-06 04:08 | 13.92485 | 119.54350 | 34842 ft | 454 kts | 249° |
| 2026-05-06 04:08 | 13.91286 | 119.51341 | 35169 ft | 455 kts | 249° |
| 2026-05-06 04:08 | 13.90094 | 119.48349 | 35462 ft | 457 kts | 249° |
| 2026-05-06 04:08 | 13.88890 | 119.45333 | 35741 ft | 458 kts | 249° |
| 2026-05-06 04:09 | 13.87680 | 119.42303 | 35872 ft | 460 kts | 249° |
| 2026-05-06 04:09 | 13.86452 | 119.39224 | 35874 ft | 460 kts | 249° |
| 2026-05-06 04:09 | 13.84021 | 119.33139 | 35873 ft | 461 kts | 249° |
| 2026-05-06 04:10 | 13.81590 | 119.27062 | 35873 ft | 461 kts | 249° |
| 2026-05-06 04:10 | 13.79155 | 119.20977 | 35875 ft | 461 kts | 249° |
| 2026-05-06 04:11 | 13.76724 | 119.14904 | 35872 ft | 461 kts | 249° |
| 2026-05-06 04:11 | 13.74281 | 119.08811 | 35871 ft | 461 kts | 249° |
| 2026-05-06 04:12 | 13.71850 | 119.02748 | 35865 ft | 461 kts | 249° |
| 2026-05-06 04:12 | 13.69399 | 118.96641 | 35860 ft | 462 kts | 249° |
| 2026-05-06 04:13 | 13.66952 | 118.90553 | 35860 ft | 462 kts | 249° |
| 2026-05-06 04:13 | 13.64497 | 118.84448 | 35861 ft | 462 kts | 249° |
| 2026-05-06 04:14 | 13.62048 | 118.78361 | 35861 ft | 462 kts | 249° |
| 2026-05-06 04:14 | 13.59591 | 118.72262 | 35861 ft | 462 kts | 249° |
| 2026-05-06 04:15 | 13.57132 | 118.66163 | 35861 ft | 463 kts | 249° |
| 2026-05-06 04:15 | 13.54674 | 118.60074 | 35859 ft | 463 kts | 249° |
| 2026-05-06 04:16 | 13.52196 | 118.53937 | 35860 ft | 463 kts | 249° |
| 2026-05-06 04:16 | 13.49772 | 118.47939 | 35860 ft | 463 kts | 249° |
| 2026-05-06 04:17 | 13.47294 | 118.41811 | 35860 ft | 463 kts | 249° |
| 2026-05-06 04:17 | 13.44834 | 118.35735 | 35861 ft | 463 kts | 249° |
| 2026-05-06 04:18 | 13.42356 | 118.29618 | 35863 ft | 463 kts | 249° |
| 2026-05-06 04:18 | 13.39878 | 118.23507 | 35865 ft | 464 kts | 249° |
| 2026-05-06 04:19 | 13.37391 | 118.17378 | 35865 ft | 464 kts | 249° |
| 2026-05-06 04:19 | 13.34919 | 118.11289 | 35866 ft | 465 kts | 249° |
| 2026-05-06 04:20 | 13.32422 | 118.05148 | 35868 ft | 465 kts | 249° |
| 2026-05-06 04:20 | 13.29939 | 117.99042 | 35869 ft | 464 kts | 249° |
| 2026-05-06 04:21 | 13.27467 | 117.92967 | 35874 ft | 464 kts | 249° |
| 2026-05-06 04:21 | 13.24983 | 117.86870 | 35875 ft | 464 kts | 249° |
| 2026-05-06 04:22 | 13.22500 | 117.80784 | 35874 ft | 464 kts | 249° |
| 2026-05-06 04:23 | 13.18757 | 117.71609 | 35882 ft | 465 kts | 249° |
| 2026-05-06 04:23 | 13.16257 | 117.65486 | 35886 ft | 465 kts | 249° |